createdAt,value
2023-02-02T00:02:43.810Z,2.91
2023-02-02T00:07:45.273Z,2.87
2023-02-02T00:12:46.704Z,2.86
2023-02-02T00:17:48.131Z,2.87
2023-02-02T00:22:49.626Z,2.93
2023-02-02T00:27:51.114Z,2.97
2023-02-02T00:32:53.171Z,2.99
2023-02-02T00:37:54.630Z,3.01
2023-02-02T00:42:56.148Z,2.97
2023-02-02T00:47:57.663Z,2.96
2023-02-02T00:52:59.296Z,2.94
2023-02-02T00:58:00.768Z,2.95
2023-02-02T01:03:04.447Z,3.09
2023-02-02T01:08:06.255Z,2.98
2023-02-02T01:13:07.715Z,2.91
2023-02-02T01:18:09.165Z,2.93
2023-02-02T01:23:10.601Z,2.99
2023-02-02T01:28:12.037Z,2.96
2023-02-02T01:33:13.524Z,3.09
2023-02-02T01:38:15.512Z,3.13
2023-02-02T01:43:27.046Z,3.22
2023-02-02T01:48:32.661Z,3.09
2023-02-02T01:53:34.507Z,3.11
2023-02-02T01:58:39.951Z,3.17
2023-02-02T02:03:41.449Z,3.14
2023-02-02T02:09:03.785Z,3.07
2023-02-02T02:14:26.897Z,3.06
2023-02-02T02:20:24.634Z,3.03
2023-02-02T02:26:04.859Z,3.19
2023-02-02T02:36:50.827Z,3.29
2023-02-02T02:41:58.781Z,3.25
2023-02-02T02:47:00.916Z,3.40
2023-02-02T02:52:02.960Z,3.34
2023-02-02T02:57:46.613Z,3.37
2023-02-02T03:02:57.634Z,3.41
2023-02-02T03:08:08.119Z,3.48
2023-02-02T03:13:12.009Z,3.49
2023-02-02T03:18:16.848Z,3.42
2023-02-02T03:23:18.472Z,3.57
2023-02-02T03:28:21.392Z,3.63
2023-02-02T03:33:23.350Z,3.56
2023-02-02T03:38:24.804Z,3.57
2023-02-02T03:43:26.685Z,3.56
2023-02-02T03:48:28.369Z,3.58
2023-02-02T03:53:29.856Z,3.56
2023-02-02T03:58:31.378Z,3.54
2023-02-02T04:03:33.418Z,3.57
2023-02-02T04:08:34.920Z,3.56
2023-02-02T04:13:36.406Z,3.61
2023-02-02T04:18:38.432Z,3.53
2023-02-02T04:23:39.916Z,3.57
2023-02-02T04:28:41.387Z,3.61
2023-02-02T04:33:42.951Z,3.57
2023-02-02T04:38:44.398Z,3.51
2023-02-02T04:43:46.365Z,3.70
2023-02-02T04:48:49.209Z,3.57
2023-02-02T04:53:50.635Z,3.55
2023-02-02T04:58:54.266Z,3.59
2023-02-02T05:03:55.720Z,3.70
2023-02-02T05:08:57.202Z,3.65
2023-02-02T05:13:58.660Z,3.59
2023-02-02T05:19:00.454Z,3.60
2023-02-02T05:24:02.739Z,3.69
2023-02-02T05:29:06.598Z,3.69
2023-02-02T05:34:11.338Z,3.69
2023-02-02T05:39:12.826Z,3.68
2023-02-02T05:44:15.128Z,3.70
2023-02-02T05:49:16.562Z,3.73
2023-02-02T05:54:20.467Z,3.73
2023-02-02T05:59:22.050Z,3.79
2023-02-02T06:04:23.530Z,3.66
2023-02-02T06:09:25.997Z,3.71
2023-02-02T06:14:27.482Z,3.76
2023-02-02T06:19:29.118Z,3.67
2023-02-02T06:24:30.699Z,3.73
2023-02-02T06:29:32.143Z,3.71
2023-02-02T06:34:33.614Z,3.76
2023-02-02T06:39:35.049Z,3.79
2023-02-02T06:44:36.494Z,3.72
2023-02-02T06:49:37.927Z,3.72
2023-02-02T06:54:39.361Z,3.64
2023-02-02T06:59:41.621Z,3.78
2023-02-02T07:04:43.093Z,3.72
2023-02-02T07:09:44.538Z,3.74
2023-02-02T07:14:45.986Z,3.77
2023-02-02T07:19:47.423Z,3.78
2023-02-02T07:24:48.920Z,3.79
2023-02-02T07:29:50.365Z,3.85
2023-02-02T07:34:51.814Z,3.84
2023-02-02T07:39:53.247Z,3.80
2023-02-02T07:44:54.928Z,3.82
2023-02-02T07:49:56.358Z,3.87
2023-02-02T07:55:13.641Z,3.84
2023-02-02T08:00:16.397Z,3.86
2023-02-02T08:05:17.860Z,3.89
2023-02-02T08:10:19.410Z,3.86
2023-02-02T08:15:21.223Z,3.92
2023-02-02T08:20:22.719Z,3.93
2023-02-02T08:25:25.429Z,3.88
2023-02-02T08:30:27.450Z,3.90
2023-02-02T08:35:28.939Z,3.89
2023-02-02T08:40:30.480Z,3.91
2023-02-02T08:46:04.240Z,4.02
2023-02-02T08:50:58.195Z,4.08
2023-02-02T08:56:06.546Z,4.04
2023-02-02T09:01:28.248Z,4.02
2023-02-02T09:06:33.540Z,4.12
2023-02-02T09:11:35.347Z,4.13
2023-02-02T09:16:36.991Z,4.13
2023-02-02T09:21:38.492Z,4.13
2023-02-02T09:26:40.846Z,4.18
2023-02-02T09:31:42.435Z,4.16
2023-02-02T09:36:45.210Z,4.15
2023-02-02T09:42:14.683Z,4.22
2023-02-02T09:47:25.455Z,4.34
2023-02-02T09:52:29.970Z,4.33
2023-02-02T09:57:41.276Z,4.36
2023-02-02T10:02:45.978Z,4.38
2023-02-02T10:07:53.906Z,4.34
2023-02-02T10:13:09.434Z,4.35
2023-02-02T10:18:34.279Z,4.35
2023-02-02T10:23:38.272Z,4.35
2023-02-02T10:28:44.723Z,4.36
2023-02-02T10:33:57.239Z,4.40
2023-02-02T10:39:32.692Z,4.44
2023-02-02T10:44:55.342Z,4.47
2023-02-02T10:50:04.338Z,4.60
2023-02-02T10:55:18.606Z,4.62
2023-02-02T11:00:28.477Z,4.53
2023-02-02T11:05:49.704Z,4.65
2023-02-02T11:10:55.725Z,4.63
2023-02-02T11:16:15.436Z,4.66
2023-02-02T11:21:20.890Z,4.62
2023-02-02T11:26:25.054Z,4.45
2023-02-02T11:31:35.456Z,4.63
2023-02-02T11:36:37.088Z,4.69
2023-02-02T11:41:38.594Z,4.73
2023-02-02T11:46:40.174Z,4.75
2023-02-02T11:51:42.631Z,4.66
2023-02-02T11:56:51.726Z,4.61
2023-02-02T12:02:19.336Z,4.68
2023-02-02T12:07:27.042Z,4.73
2023-02-02T12:12:47.840Z,4.95
2023-02-02T12:17:55.586Z,4.93
2023-02-02T12:23:22.131Z,4.95
2023-02-02T12:28:51.599Z,5.05
2023-02-02T12:34:05.187Z,5.02
2023-02-02T12:39:34.676Z,4.88
2023-02-02T12:44:52.368Z,4.76
2023-02-02T12:50:36.353Z,4.72
2023-02-02T12:56:00.275Z,4.72
2023-02-02T13:01:24.441Z,4.89
2023-02-02T13:06:48.086Z,5.22
2023-02-02T13:12:01.211Z,4.96
2023-02-02T13:17:18.546Z,4.89
2023-02-02T13:22:29.067Z,4.92
2023-02-02T13:27:31.320Z,4.94
2023-02-02T13:32:45.181Z,5.10
2023-02-02T13:37:53.678Z,5.04
2023-02-02T13:43:03.832Z,4.93
2023-02-02T13:48:42.870Z,4.90
2023-02-02T13:54:25.688Z,4.94
2023-02-02T13:59:39.318Z,4.96
2023-02-02T14:04:40.793Z,5.01
2023-02-02T14:09:42.267Z,5.05
2023-02-02T14:14:46.772Z,5.06
2023-02-02T14:19:53.975Z,5.02
2023-02-02T14:24:55.545Z,4.98
2023-02-02T14:29:56.931Z,4.99
2023-02-02T14:35:18.657Z,4.99
2023-02-02T14:40:41.337Z,5.03
2023-02-02T14:45:45.060Z,5.00
2023-02-02T14:50:54.642Z,4.97
2023-02-02T14:56:15.983Z,4.99
2023-02-02T15:01:17.394Z,4.95
2023-02-02T15:06:42.171Z,4.95
2023-02-02T15:12:00.809Z,4.94
2023-02-02T15:17:20.303Z,4.92
2023-02-02T15:22:44.183Z,4.93
2023-02-02T15:27:56.766Z,4.90
2023-02-02T15:33:02.108Z,4.92
2023-02-02T15:38:07.963Z,4.88
2023-02-02T15:43:13.520Z,4.84
2023-02-02T15:48:26.705Z,4.83
2023-02-02T15:53:33.519Z,4.80
2023-02-02T15:58:38.699Z,4.74
2023-02-02T16:03:58.905Z,4.71
2023-02-02T16:09:03.940Z,4.66
2023-02-02T16:14:10.340Z,4.57
2023-02-02T16:19:20.887Z,4.40
2023-02-02T16:24:31.565Z,4.34
2023-02-02T16:29:34.998Z,4.18
2023-02-02T16:34:44.913Z,3.91
2023-02-02T16:39:47.911Z,3.63
2023-02-02T16:44:49.462Z,3.47
2023-02-02T16:50:19.428Z,3.57
2023-02-02T16:55:21.821Z,3.49
2023-02-02T17:00:25.809Z,3.63
2023-02-02T17:05:33.183Z,3.83
2023-02-02T17:10:37.088Z,3.79
2023-02-02T17:15:38.539Z,3.84
2023-02-02T17:20:40.502Z,3.85
2023-02-02T17:25:43.080Z,3.83
2023-02-02T17:30:47.400Z,3.81
2023-02-02T17:35:55.808Z,3.82
2023-02-02T17:41:01.663Z,3.76
2023-02-02T17:46:04.065Z,3.80
2023-02-02T17:51:07.091Z,3.78
2023-02-02T17:56:08.547Z,3.80
2023-02-02T18:01:12.034Z,3.91
2023-02-02T18:06:13.600Z,3.91
2023-02-02T18:11:15.302Z,3.88
2023-02-02T18:16:16.848Z,3.85
2023-02-02T18:21:18.316Z,3.80
2023-02-02T18:26:22.294Z,3.73
2023-02-02T18:31:24.141Z,3.70
2023-02-02T18:36:25.715Z,3.67
2023-02-02T18:41:27.222Z,3.58
2023-02-02T18:46:29.079Z,3.52
2023-02-02T18:51:31.553Z,3.45
2023-02-02T18:56:33.073Z,3.47
2023-02-02T19:01:34.552Z,3.47
2023-02-02T19:06:54.721Z,3.36
2023-02-02T19:11:56.477Z,3.42
2023-02-02T19:17:20.382Z,3.30
2023-02-02T19:22:24.808Z,3.27
2023-02-02T19:27:29.197Z,3.33
2023-02-02T19:32:32.724Z,3.27
2023-02-02T19:37:43.243Z,3.06
2023-02-02T19:43:06.375Z,3.04
2023-02-02T19:48:20.249Z,3.12
2023-02-02T19:53:24.862Z,3.02
2023-02-02T19:58:34.107Z,3.01
2023-02-02T20:03:43.132Z,2.94
2023-02-02T20:08:44.738Z,3.01
2023-02-02T20:13:48.381Z,3.00
2023-02-02T20:18:55.255Z,2.99
2023-02-02T20:23:57.093Z,2.99
2023-02-02T20:29:01.045Z,3.02
2023-02-02T20:34:17.767Z,3.01
2023-02-02T20:39:26.927Z,2.95
2023-02-02T20:44:30.927Z,3.00
2023-02-02T20:49:32.419Z,3.02
2023-02-02T20:54:34.373Z,2.98
2023-02-02T20:59:35.814Z,2.99
2023-02-02T21:04:37.302Z,2.99
2023-02-02T21:09:38.747Z,2.94
2023-02-02T21:14:40.602Z,2.90
2023-02-02T21:19:42.205Z,2.96
2023-02-02T21:24:43.636Z,2.92
2023-02-02T21:29:45.084Z,2.87
2023-02-02T21:34:46.516Z,2.86
2023-02-02T21:39:51.711Z,2.86
2023-02-02T21:45:33.298Z,2.81
2023-02-02T21:50:37.656Z,2.84
2023-02-02T21:55:39.405Z,2.83
2023-02-02T22:00:41.007Z,2.79
2023-02-02T22:05:42.556Z,2.85
2023-02-02T22:10:44.110Z,2.82
2023-02-02T22:15:47.679Z,2.81
2023-02-02T22:20:51.149Z,2.76
2023-02-02T22:25:55.202Z,2.74
2023-02-02T22:30:58.475Z,2.70
2023-02-02T22:36:00.019Z,2.70
2023-02-02T22:41:01.515Z,2.69
2023-02-02T22:46:03.105Z,2.72
2023-02-02T22:51:04.628Z,2.75
2023-02-02T22:56:06.297Z,2.77
2023-02-02T23:01:07.719Z,2.76
2023-02-02T23:06:09.151Z,2.77
2023-02-02T23:11:10.603Z,2.77
2023-02-02T23:16:12.209Z,2.76
2023-02-02T23:21:13.888Z,2.80
2023-02-02T23:26:15.714Z,2.83
2023-02-02T23:31:17.349Z,2.83
2023-02-02T23:36:18.841Z,2.85
2023-02-02T23:41:20.429Z,2.86
2023-02-02T23:46:22.827Z,2.85
2023-02-02T23:51:24.311Z,2.89
2023-02-02T23:56:26.587Z,2.91
